createdAt,value
2023-01-12T00:01:29.386Z,7.07
2023-01-12T00:03:59.807Z,7.60
2023-01-12T00:06:30.170Z,7.38
2023-01-12T00:09:06.503Z,9.18
2023-01-12T00:11:36.642Z,3.70
2023-01-12T00:14:07.447Z,10.98
2023-01-12T00:16:38.074Z,8.20
2023-01-12T00:19:13.858Z,11.85
2023-01-12T00:21:56.593Z,8.95
2023-01-12T00:24:30.991Z,8.90
2023-01-12T00:27:02.624Z,11.77
2023-01-12T00:29:33.174Z,6.75
2023-01-12T00:32:03.923Z,6.88
2023-01-12T00:34:34.035Z,5.10
2023-01-12T00:37:04.691Z,13.38
2023-01-12T00:39:40.714Z,6.65
2023-01-12T00:42:28.025Z,9.15
2023-01-12T00:45:10.500Z,10.75
2023-01-12T00:47:40.563Z,8.80
2023-01-12T00:50:11.913Z,9.95
2023-01-12T00:52:41.965Z,8.40
2023-01-12T00:55:14.817Z,10.13
2023-01-12T00:57:44.823Z,6.00
2023-01-12T01:00:16.193Z,13.80
2023-01-12T01:02:46.320Z,6.53
2023-01-12T01:05:17.960Z,10.65
2023-01-12T01:07:48.696Z,11.15
2023-01-12T01:10:21.526Z,7.20
2023-01-12T01:12:52.046Z,13.23
2023-01-12T01:15:22.416Z,6.82
2023-01-12T01:17:52.407Z,10.35
2023-01-12T01:20:22.615Z,8.38
2023-01-12T01:22:52.701Z,8.50
2023-01-12T01:25:25.465Z,6.55
2023-01-12T01:27:55.468Z,14.35
2023-01-12T01:30:25.542Z,13.43
2023-01-12T01:32:55.543Z,15.43
2023-01-12T01:35:25.613Z,9.27
2023-01-12T01:37:56.241Z,9.02
2023-01-12T01:40:29.251Z,5.55
2023-01-12T01:42:59.282Z,8.68
2023-01-12T01:45:29.766Z,9.15
2023-01-12T01:48:04.164Z,7.32
2023-01-12T01:50:38.249Z,12.07
2023-01-12T01:53:12.484Z,7.72
2023-01-12T01:55:49.718Z,10.07
2023-01-12T01:58:23.012Z,9.48
2023-01-12T02:00:53.432Z,10.95
2023-01-12T02:03:23.814Z,6.20
2023-01-12T02:05:55.021Z,7.60
2023-01-12T02:11:03.233Z,6.90
2023-01-12T02:13:46.571Z,3.92
2023-01-12T02:16:24.260Z,4.57
2023-01-12T02:22:02.436Z,6.50
2023-01-12T02:24:48.312Z,6.57
2023-01-12T02:27:45.875Z,5.45
2023-01-12T02:33:18.882Z,5.40
2023-01-12T02:35:57.402Z,7.93
2023-01-12T02:38:36.717Z,7.30
2023-01-12T02:41:15.587Z,14.48
2023-01-12T02:43:43.680Z,6.65
2023-01-12T02:46:21.909Z,10.55
2023-01-12T02:48:58.301Z,15.93
2023-01-12T02:51:33.579Z,6.72
2023-01-12T02:54:07.887Z,3.88
2023-01-12T02:56:42.088Z,9.05
2023-01-12T02:59:18.664Z,6.13
2023-01-12T03:01:51.721Z,1.92
2023-01-12T03:04:25.828Z,5.63
2023-01-12T03:07:25.588Z,3.10
2023-01-12T03:10:00.303Z,8.05
2023-01-12T03:12:33.291Z,11.63
2023-01-12T03:15:07.344Z,6.32
2023-01-12T03:17:43.186Z,6.88
2023-01-12T03:20:20.726Z,9.73
2023-01-12T03:22:54.849Z,6.70
2023-01-12T03:25:26.665Z,10.82
2023-01-12T03:28:00.777Z,6.10
2023-01-12T03:30:37.276Z,7.45
2023-01-12T03:33:08.357Z,13.30
2023-01-12T03:35:46.640Z,7.95
2023-01-12T03:38:24.407Z,7.57
2023-01-12T03:43:35.644Z,5.18
2023-01-12T03:46:12.349Z,13.73
2023-01-12T03:48:49.534Z,9.57
2023-01-12T03:51:25.676Z,12.98
2023-01-12T03:53:57.608Z,12.88
2023-01-12T03:56:31.431Z,13.88
2023-01-12T03:59:01.756Z,10.25
2023-01-12T04:01:31.894Z,16.20
2023-01-12T04:04:01.938Z,9.40
2023-01-12T04:06:34.647Z,10.85
2023-01-12T04:09:04.698Z,3.95
2023-01-12T04:11:47.147Z,3.72
2023-01-12T04:14:17.134Z,6.22
2023-01-12T04:16:47.150Z,7.07
2023-01-12T04:19:17.161Z,8.77
2023-01-12T04:22:02.204Z,11.15
2023-01-12T04:24:32.328Z,10.85
2023-01-12T04:27:02.578Z,6.88
2023-01-12T04:29:32.646Z,5.80
2023-01-12T04:32:03.014Z,14.93
2023-01-12T04:34:33.048Z,10.38
2023-01-12T04:37:08.657Z,13.82
2023-01-12T04:39:38.767Z,9.27
2023-01-12T04:42:29.538Z,11.27
2023-01-12T04:44:59.576Z,8.15
2023-01-12T04:47:29.632Z,7.38
2023-01-12T04:49:59.617Z,5.00
2023-01-12T04:52:32.311Z,6.72
2023-01-12T04:55:02.368Z,7.60
2023-01-12T04:57:32.660Z,4.90
2023-01-12T05:00:02.747Z,7.03
2023-01-12T05:02:32.779Z,5.20
2023-01-12T05:05:02.792Z,7.47
2023-01-12T05:07:35.464Z,6.72
2023-01-12T05:10:17.868Z,7.72
2023-01-12T05:12:47.963Z,7.82
2023-01-12T05:15:18.193Z,2.90
2023-01-12T05:17:48.394Z,7.22
2023-01-12T05:20:18.872Z,6.93
2023-01-12T05:22:52.680Z,6.13
2023-01-12T05:25:22.710Z,7.07
2023-01-12T05:27:52.723Z,6.00
2023-01-12T05:30:22.914Z,6.82
2023-01-12T05:32:53.063Z,9.18
2023-01-12T05:35:23.361Z,10.35
2023-01-12T05:37:57.975Z,5.55
2023-01-12T05:40:28.116Z,4.38
2023-01-12T05:43:10.561Z,4.78
2023-01-12T05:45:40.898Z,4.20
2023-01-12T05:48:11.483Z,7.43
2023-01-12T05:50:41.502Z,7.57
2023-01-12T05:53:14.240Z,7.45
2023-01-12T05:55:44.233Z,9.60
2023-01-12T05:58:14.402Z,4.22
2023-01-12T06:00:44.458Z,7.47
2023-01-12T06:03:14.573Z,5.93
2023-01-12T06:05:44.513Z,6.95
2023-01-12T06:08:17.235Z,4.75
2023-01-12T06:10:47.282Z,4.53
2023-01-12T06:13:29.697Z,11.48
2023-01-12T06:16:05.634Z,11.18
2023-01-12T06:18:36.935Z,5.03
2023-01-12T06:23:40.121Z,6.35
2023-01-12T06:26:11.513Z,11.45
2023-01-12T06:28:43.313Z,2.53
2023-01-12T06:31:15.473Z,3.00
2023-01-12T06:33:46.252Z,5.20
2023-01-12T06:36:16.266Z,6.43
2023-01-12T06:38:49.193Z,4.93
2023-01-12T06:41:31.375Z,5.50
2023-01-12T06:44:01.769Z,4.63
2023-01-12T06:46:32.099Z,3.60
2023-01-12T06:49:02.601Z,7.35
2023-01-12T06:51:32.586Z,7.50
2023-01-12T06:54:05.496Z,5.50
2023-01-12T06:56:35.484Z,5.00
2023-01-12T06:59:05.840Z,6.25
2023-01-12T07:01:36.072Z,3.40
2023-01-12T07:04:06.314Z,5.03
2023-01-12T07:06:36.384Z,6.75
2023-01-12T07:09:09.460Z,5.97
2023-01-12T07:11:39.516Z,5.70
2023-01-12T07:14:09.692Z,3.78
2023-01-12T07:16:40.302Z,6.18
2023-01-12T07:19:10.350Z,7.45
2023-01-12T07:21:40.402Z,15.55
2023-01-12T07:24:13.380Z,5.78
2023-01-12T07:26:43.419Z,6.65
2023-01-12T07:29:14.143Z,6.38
2023-01-12T07:31:44.534Z,3.95
2023-01-12T07:34:15.500Z,4.70
2023-01-12T07:36:45.539Z,3.85
2023-01-12T07:39:18.353Z,2.50
2023-01-12T07:42:00.795Z,5.55
2023-01-12T07:44:30.971Z,3.22
2023-01-12T07:47:01.411Z,6.07
2023-01-12T07:49:31.439Z,6.68
2023-01-12T07:52:01.563Z,5.35
2023-01-12T07:54:36.142Z,4.43
2023-01-12T07:57:06.216Z,5.93
2023-01-12T07:59:36.339Z,5.22
2023-01-12T08:02:06.604Z,5.78
2023-01-12T08:04:36.987Z,3.15
2023-01-12T08:07:07.015Z,4.05
2023-01-12T08:09:39.747Z,4.50
2023-01-12T08:12:09.917Z,5.68
2023-01-12T08:14:42.956Z,4.90
2023-01-12T08:17:17.111Z,8.73
2023-01-12T08:19:52.043Z,5.63
2023-01-12T08:22:26.027Z,4.65
2023-01-12T08:25:03.600Z,3.70
2023-01-12T08:27:36.895Z,14.00
2023-01-12T08:30:09.200Z,8.43
2023-01-12T08:32:40.054Z,3.60
2023-01-12T08:35:11.572Z,6.53
2023-01-12T08:37:41.636Z,6.63
2023-01-12T08:40:16.545Z,7.68
2023-01-12T08:42:47.372Z,4.55
2023-01-12T08:45:17.622Z,3.83
2023-01-12T08:47:48.346Z,5.03
2023-01-12T08:50:18.633Z,5.75
2023-01-12T08:52:48.784Z,3.35
2023-01-12T08:55:21.460Z,5.63
2023-01-12T08:57:51.751Z,5.13
2023-01-12T09:00:23.510Z,6.10
2023-01-12T09:02:53.898Z,5.13
2023-01-12T09:05:23.926Z,6.93
2023-01-12T09:07:53.955Z,4.65
2023-01-12T09:10:26.652Z,5.13
2023-01-12T09:12:56.774Z,3.30
2023-01-12T09:15:26.951Z,4.00
2023-01-12T09:17:57.243Z,4.40
2023-01-12T09:20:27.502Z,4.40
2023-01-12T09:22:57.540Z,7.72
2023-01-12T09:25:30.265Z,7.45
2023-01-12T09:28:00.327Z,2.38
2023-01-12T09:30:30.461Z,4.13
2023-01-12T09:33:00.492Z,5.38
2023-01-12T09:35:30.603Z,5.60
2023-01-12T09:38:03.606Z,5.75
2023-01-12T09:40:37.147Z,5.05
2023-01-12T09:43:19.583Z,3.95
2023-01-12T09:46:02.091Z,5.90
2023-01-12T09:48:33.360Z,4.72
2023-01-12T09:51:08.807Z,5.57
2023-01-12T09:53:41.501Z,3.13
2023-01-12T09:56:20.453Z,3.42
2023-01-12T09:59:19.628Z,3.20
2023-01-12T10:01:50.041Z,3.25
2023-01-12T10:04:20.346Z,3.13
2023-01-12T10:06:50.497Z,3.47
2023-01-12T10:09:22.999Z,3.20
2023-01-12T10:12:03.432Z,3.72
2023-01-12T10:15:02.153Z,3.97
2023-01-12T10:17:50.550Z,3.38
2023-01-12T10:20:28.657Z,3.53
2023-01-12T10:23:02.831Z,2.75
2023-01-12T10:25:38.581Z,3.38
2023-01-12T10:28:18.580Z,3.67
2023-01-12T10:30:49.082Z,4.45
2023-01-12T10:33:21.509Z,6.32
2023-01-12T10:35:57.116Z,3.03
2023-01-12T10:38:31.528Z,3.85
2023-01-12T10:41:17.258Z,5.15
2023-01-12T10:44:07.903Z,4.70
2023-01-12T10:46:38.622Z,5.05
2023-01-12T10:49:22.999Z,7.53
2023-01-12T10:51:56.537Z,3.92
2023-01-12T10:54:28.939Z,4.45
2023-01-12T10:57:01.801Z,3.33
2023-01-12T10:59:36.763Z,9.02
2023-01-12T11:02:17.860Z,4.68
2023-01-12T11:04:49.303Z,4.57
2023-01-12T11:07:22.090Z,2.92
2023-01-12T11:09:52.676Z,10.43
2023-01-12T11:12:29.600Z,5.38
2023-01-12T11:15:17.973Z,3.42
2023-01-12T11:18:11.851Z,2.53
2023-01-12T11:20:48.497Z,5.80
2023-01-12T11:23:21.989Z,5.10
2023-01-12T11:25:54.702Z,4.10
2023-01-12T11:28:29.724Z,3.92
2023-01-12T11:31:08.190Z,4.80
2023-01-12T11:33:42.323Z,5.25
2023-01-12T11:36:14.911Z,4.68
2023-01-12T11:38:48.231Z,6.40
2023-01-12T11:41:25.732Z,3.63
2023-01-12T11:44:01.157Z,3.03
2023-01-12T11:46:39.678Z,5.97
2023-01-12T11:49:16.186Z,2.95
2023-01-12T11:51:47.053Z,4.10
2023-01-12T11:54:19.507Z,1.90
2023-01-12T11:57:19.805Z,3.50
2023-01-12T12:00:01.376Z,2.70
2023-01-12T12:02:41.292Z,3.10
2023-01-12T12:05:32.357Z,2.28
2023-01-12T12:08:14.251Z,5.70
2023-01-12T12:10:50.747Z,4.18
2023-01-12T12:13:33.789Z,5.45
2023-01-12T12:16:21.453Z,1.98
2023-01-12T12:19:14.252Z,4.30
2023-01-12T12:21:52.055Z,2.67
2023-01-12T12:24:47.567Z,1.40
2023-01-12T12:27:28.611Z,1.92
2023-01-12T12:30:23.535Z,3.17
2023-01-12T12:33:01.254Z,2.90
2023-01-12T12:38:24.526Z,5.50
2023-01-12T12:41:20.918Z,3.28
2023-01-12T12:44:13.133Z,3.08
2023-01-12T12:46:56.991Z,3.42
2023-01-12T12:49:32.839Z,4.75
2023-01-12T12:52:06.553Z,2.92
2023-01-12T12:54:37.401Z,4.32
2023-01-12T12:57:08.056Z,2.95
2023-01-12T12:59:59.859Z,7.00
2023-01-12T13:02:58.851Z,2.30
2023-01-12T13:05:48.625Z,3.50
2023-01-12T13:08:26.212Z,3.22
2023-01-12T13:10:58.828Z,1.80
2023-01-12T13:13:34.466Z,1.27
2023-01-12T13:16:43.353Z,3.63
2023-01-12T13:19:17.335Z,3.70
2023-01-12T13:22:00.285Z,3.58
2023-01-12T13:24:46.439Z,2.85
2023-01-12T13:27:55.315Z,3.03
2023-01-12T13:30:39.497Z,3.13
2023-01-12T13:36:11.368Z,3.08
2023-01-12T13:39:04.263Z,3.67
2023-01-12T13:41:51.046Z,2.42
2023-01-12T13:44:27.407Z,2.53
2023-01-12T13:47:05.319Z,2.53
2023-01-12T13:49:36.967Z,2.42
2023-01-12T13:52:30.174Z,2.70
2023-01-12T13:55:01.098Z,2.47
2023-01-12T13:57:33.066Z,2.40
2023-01-12T14:00:08.969Z,1.98
2023-01-12T14:02:41.666Z,2.75
2023-01-12T14:05:41.778Z,2.17
2023-01-12T14:08:51.256Z,1.27
2023-01-12T14:11:39.215Z,2.67
2023-01-12T14:14:48.219Z,1.80
2023-01-12T14:17:38.573Z,2.85
2023-01-12T14:20:17.393Z,2.22
2023-01-12T14:22:48.656Z,1.88
2023-01-12T14:25:23.378Z,0.85
2023-01-12T14:27:55.300Z,2.13
2023-01-12T14:30:27.689Z,3.35
2023-01-12T14:32:58.714Z,3.90
2023-01-12T14:35:29.306Z,1.58
2023-01-12T14:38:01.975Z,2.38
2023-01-12T14:40:36.786Z,2.63
2023-01-12T14:43:20.118Z,2.47
2023-01-12T14:46:11.306Z,1.63
2023-01-12T14:48:44.047Z,5.53
2023-01-12T14:51:21.911Z,1.98
2023-01-12T14:54:01.533Z,3.67
2023-01-12T14:56:40.685Z,2.88
2023-01-12T14:59:16.221Z,2.03
2023-01-12T15:01:46.736Z,5.80
2023-01-12T15:04:23.165Z,4.80
2023-01-12T15:07:06.284Z,2.28
2023-01-12T15:09:38.221Z,4.07
2023-01-12T15:12:43.959Z,5.45
2023-01-12T15:15:24.043Z,2.30
2023-01-12T15:18:08.748Z,2.58
2023-01-12T15:20:53.869Z,3.05
2023-01-12T15:23:42.126Z,2.28
2023-01-12T15:26:12.408Z,1.85
2023-01-12T15:28:43.030Z,4.63
2023-01-12T15:31:23.490Z,3.97
2023-01-12T15:33:53.558Z,4.57
2023-01-12T15:36:23.732Z,4.28
2023-01-12T15:38:53.865Z,2.10
2023-01-12T15:41:47.653Z,3.60
2023-01-12T15:44:18.813Z,2.90
2023-01-12T15:49:21.603Z,4.25
2023-01-12T15:51:53.839Z,3.90
2023-01-12T15:54:24.209Z,2.65
2023-01-12T15:56:54.295Z,2.65
2023-01-12T15:59:24.373Z,2.80
2023-01-12T16:01:57.282Z,2.92
2023-01-12T16:04:42.610Z,4.22
2023-01-12T16:07:13.638Z,3.28
2023-01-12T16:09:45.824Z,4.43
2023-01-12T16:12:16.019Z,4.70
2023-01-12T16:14:46.232Z,3.28
2023-01-12T16:17:19.044Z,3.95
2023-01-12T16:19:49.215Z,4.43
2023-01-12T16:22:21.438Z,3.40
2023-01-12T16:24:52.039Z,5.13
2023-01-12T16:27:26.518Z,4.57
2023-01-12T16:29:57.239Z,5.03
2023-01-12T16:32:30.353Z,3.13
2023-01-12T16:35:00.478Z,3.35
2023-01-12T16:37:33.494Z,3.35
2023-01-12T16:40:03.624Z,3.25
2023-01-12T16:42:33.793Z,4.95
2023-01-12T16:45:03.892Z,3.58
2023-01-12T16:47:44.018Z,3.50
2023-01-12T16:50:18.748Z,5.30
2023-01-12T16:52:49.013Z,3.75
2023-01-12T16:55:19.307Z,4.82
2023-01-12T16:57:49.557Z,4.93
2023-01-12T17:00:20.889Z,5.43
2023-01-12T17:03:00.193Z,3.85
2023-01-12T17:05:33.357Z,4.57
2023-01-12T17:08:03.730Z,2.53
2023-01-12T17:10:34.439Z,3.05
2023-01-12T17:13:04.696Z,2.38
2023-01-12T17:15:37.846Z,2.45
2023-01-12T17:18:11.056Z,2.65
2023-01-12T17:20:41.285Z,6.60
2023-01-12T17:23:11.832Z,2.35
2023-01-12T17:25:42.241Z,2.17
2023-01-12T17:28:12.445Z,3.85
2023-01-12T17:30:43.366Z,4.75
2023-01-12T17:33:17.417Z,3.60
2023-01-12T17:35:47.475Z,2.92
2023-01-12T17:38:17.624Z,2.25
2023-01-12T17:40:47.680Z,3.05
2023-01-12T17:43:15.275Z,2.80
2023-01-12T17:45:46.396Z,2.63
2023-01-12T17:48:19.867Z,4.88
2023-01-12T17:50:50.101Z,3.80
2023-01-12T17:53:20.251Z,3.60
2023-01-12T17:55:51.615Z,5.43
2023-01-12T17:58:22.471Z,6.10
2023-01-12T18:00:52.767Z,9.13
2023-01-12T18:03:25.591Z,4.50
2023-01-12T18:06:04.409Z,4.30
2023-01-12T18:08:37.254Z,3.40
2023-01-12T18:11:08.927Z,3.28
2023-01-12T18:13:41.375Z,3.65
2023-01-12T18:16:12.777Z,3.28
2023-01-12T18:21:17.639Z,1.40
2023-01-12T18:23:47.859Z,2.35
2023-01-12T18:26:19.450Z,3.53
2023-01-12T18:28:50.070Z,3.33
2023-01-12T18:31:21.841Z,2.38
2023-01-12T18:33:58.003Z,3.22
2023-01-12T18:36:28.889Z,5.30
2023-01-12T18:38:58.973Z,2.50
2023-01-12T18:41:41.535Z,3.22
2023-01-12T18:44:12.798Z,1.73
2023-01-12T18:46:57.595Z,1.58
2023-01-12T18:49:32.235Z,2.95
2023-01-12T18:52:15.504Z,2.45
2023-01-12T18:54:48.024Z,2.88
2023-01-12T18:57:19.399Z,3.22
2023-01-12T18:59:50.707Z,2.05
2023-01-12T19:02:21.747Z,2.15
2023-01-12T19:07:50.366Z,1.65
2023-01-12T19:10:20.809Z,3.95
2023-01-12T19:12:50.903Z,3.50
2023-01-12T19:15:33.549Z,3.25
2023-01-12T19:18:04.073Z,3.70
2023-01-12T19:20:39.960Z,3.38
2023-01-12T19:23:26.638Z,2.92
2023-01-12T19:26:18.144Z,1.73
2023-01-12T19:28:48.462Z,2.85
2023-01-12T19:31:19.919Z,3.67
2023-01-12T19:33:50.154Z,2.40
2023-01-12T19:36:23.343Z,2.50
2023-01-12T19:38:54.245Z,4.07
2023-01-12T19:41:36.750Z,2.75
2023-01-12T19:44:07.908Z,1.63
2023-01-12T19:49:08.618Z,2.50
2023-01-12T19:51:41.710Z,1.77
2023-01-12T19:54:12.031Z,2.78
2023-01-12T19:56:42.165Z,4.28
2023-01-12T19:59:13.707Z,3.20
2023-01-12T20:01:43.928Z,3.97
2023-01-12T20:04:14.237Z,3.10
2023-01-12T20:06:46.970Z,3.50
2023-01-12T20:09:17.197Z,2.65
2023-01-12T20:11:52.848Z,2.40
2023-01-12T20:14:23.163Z,2.70
2023-01-12T20:16:53.404Z,1.80
2023-01-12T20:19:23.605Z,2.58
2023-01-12T20:21:56.360Z,3.60
2023-01-12T20:24:26.591Z,2.40
2023-01-12T20:26:56.820Z,3.65
2023-01-12T20:29:27.492Z,6.85
2023-01-12T20:31:57.768Z,2.28
2023-01-12T20:34:27.971Z,5.07
2023-01-12T20:37:00.746Z,2.30
2023-01-12T20:39:31.069Z,3.80
2023-01-12T20:42:01.381Z,3.97
2023-01-12T20:44:31.599Z,2.97
2023-01-12T20:47:01.964Z,3.90
2023-01-12T20:49:32.216Z,2.10
2023-01-12T20:52:05.125Z,2.20
2023-01-12T20:54:35.318Z,1.05
2023-01-12T20:57:05.486Z,2.85
2023-01-12T20:59:35.648Z,2.67
2023-01-12T21:02:05.997Z,1.98
2023-01-12T21:04:36.542Z,2.40
2023-01-12T21:07:09.328Z,1.90
2023-01-12T21:09:39.436Z,6.65
2023-01-12T21:12:09.914Z,1.98
2023-01-12T21:14:40.354Z,3.65
2023-01-12T21:17:10.548Z,3.78
2023-01-12T21:19:40.728Z,2.35
2023-01-12T21:22:13.573Z,5.22
2023-01-12T21:24:43.796Z,3.75
2023-01-12T21:27:13.876Z,5.35
2023-01-12T21:29:44.123Z,3.55
2023-01-12T21:32:14.181Z,3.33
2023-01-12T21:34:44.318Z,5.53
2023-01-12T21:37:17.033Z,1.67
2023-01-12T21:39:47.327Z,2.42
2023-01-12T21:42:29.776Z,3.58
2023-01-12T21:44:59.884Z,2.95
2023-01-12T21:47:29.920Z,3.50
2023-01-12T21:50:00.186Z,3.78
2023-01-12T21:52:33.383Z,2.70
2023-01-12T21:55:03.935Z,3.97
2023-01-12T21:57:34.238Z,3.90
2023-01-12T22:00:04.473Z,2.53
2023-01-12T22:02:35.824Z,4.10
2023-01-12T22:05:06.184Z,1.70
2023-01-12T22:07:39.091Z,4.53
2023-01-12T22:10:25.438Z,6.68
2023-01-12T22:12:57.613Z,5.50
2023-01-12T22:15:29.460Z,4.82
2023-01-12T22:17:59.793Z,7.25
2023-01-12T22:20:30.702Z,4.43
2023-01-12T22:23:03.369Z,5.90
2023-01-12T22:25:33.518Z,5.60
2023-01-12T22:28:03.660Z,11.55
2023-01-12T22:30:33.864Z,3.78
2023-01-12T22:33:03.944Z,6.15
2023-01-12T22:35:34.313Z,9.77
2023-01-12T22:38:07.282Z,10.20
2023-01-12T22:40:37.451Z,7.18
2023-01-12T22:43:19.955Z,6.90
2023-01-12T22:45:50.770Z,7.35
2023-01-12T22:48:21.020Z,6.13
2023-01-12T22:50:53.551Z,10.95
2023-01-12T22:53:26.954Z,7.70
2023-01-12T22:55:57.061Z,8.80
2023-01-12T22:58:27.257Z,5.28
2023-01-12T23:00:57.465Z,7.55
2023-01-12T23:03:27.607Z,3.47
2023-01-12T23:05:57.997Z,5.18
2023-01-12T23:08:30.835Z,11.60
2023-01-12T23:11:11.563Z,8.57
2023-01-12T23:13:43.310Z,9.60
2023-01-12T23:16:16.025Z,10.15
2023-01-12T23:18:47.784Z,4.45
2023-01-12T23:21:20.359Z,12.75
2023-01-12T23:23:54.643Z,10.38
2023-01-12T23:26:27.577Z,8.77
2023-01-12T23:29:00.270Z,13.00
2023-01-12T23:31:32.314Z,11.85
2023-01-12T23:34:02.616Z,9.50
2023-01-12T23:36:33.665Z,8.93
2023-01-12T23:39:09.182Z,9.82
2023-01-12T23:41:40.012Z,9.07
2023-01-12T23:44:12.239Z,12.55
2023-01-12T23:46:43.547Z,9.10
2023-01-12T23:49:13.807Z,6.50
2023-01-12T23:51:43.854Z,10.90
2023-01-12T23:54:20.538Z,11.75
2023-01-12T23:56:55.144Z,9.38
2023-01-12T23:59:25.222Z,9.98
